Time;durP1;ratioP1;P1;durP2;ratioP2;P2;SDS_P1;SDS_P2;PMS_P1;PMS_P2;Temp;Humidity;BMP_temperature;BMP_pressure;BME280_temperature;BME280_humidity;BME280_pressure;Samples;Min_cycle;Max_cycle;Signal;HPM_P1;HPM_P2
2021/08/19 00:01:51;;;;;;;6.78;5.42;;;;;;;19.19;71.87;99691.89;1672096;84;20953;-73
2021/08/19 00:04:18;;;;;;;6.42;5.10;;;;;;;19.21;71.83;99695.23;1651095;85;21001;-72
2021/08/19 00:06:45;;;;;;;8.13;5.37;;;;;;;19.20;71.88;99695.39;1679506;84;21043;-73
2021/08/19 00:09:13;;;;;;;7.00;5.30;;;;;;;19.19;71.93;99700.44;1680150;84;21037;-73
2021/08/19 00:11:39;;;;;;;9.30;4.97;;;;;;;19.19;71.91;99702.60;1680466;85;22181;-73
2021/08/19 00:14:08;;;;;;;6.22;5.10;;;;;;;19.20;71.87;99705.59;1680342;85;21443;-73
2021/08/19 00:16:34;;;;;;;5.60;4.75;;;;;;;19.18;71.76;99698.78;1680468;84;20944;-73
2021/08/19 00:19:02;;;;;;;8.10;5.00;;;;;;;19.18;71.75;99707.64;1680127;85;20975;-72
2021/08/19 00:21:30;;;;;;;9.00;5.15;;;;;;;19.18;71.64;99713.00;1736157;82;20990;-73
2021/08/19 00:23:58;;;;;;;8.03;5.12;;;;;;;19.19;71.67;99718.66;1729685;82;21842;-72
2021/08/19 00:26:26;;;;;;;7.10;5.00;;;;;;;19.19;71.66;99724.02;1729307;82;20999;-72
2021/08/19 00:28:53;;;;;;;9.43;5.20;;;;;;;19.19;71.58;99724.53;1729431;83;20983;-73
2021/08/19 00:31:20;;;;;;;7.67;5.10;;;;;;;19.20;71.53;99729.69;1732312;82;20989;-73
2021/08/19 00:33:47;;;;;;;7.12;4.78;;;;;;;19.16;71.53;99733.78;1739332;82;21452;-73
2021/08/19 00:36:13;;;;;;;6.55;4.62;;;;;;;19.15;71.57;99740.16;1739320;82;22862;-72
2021/08/19 00:38:40;;;;;;;6.30;5.40;;;;;;;19.15;71.53;99741.50;1737890;82;20902;-73
2021/08/19 00:41:08;;;;;;;6.20;5.00;;;;;;;19.14;71.51;99745.20;1709474;84;21013;-73
2021/08/19 00:43:34;;;;;;;7.67;5.00;;;;;;;19.12;71.44;99744.06;1709911;83;20954;-73
2021/08/19 00:46:03;;;;;;;6.00;5.20;;;;;;;19.12;71.40;99751.27;1709484;83;20985;-73
2021/08/19 00:48:31;;;;;;;7.75;4.75;;;;;;;19.12;71.36;99752.60;1689890;84;21404;-72
2021/08/19 00:50:58;;;;;;;6.55;4.90;;;;;;;19.09;71.39;99749.78;1710008;83;20918;-73
2021/08/19 00:53:26;;;;;;;6.10;4.80;;;;;;;19.06;71.39;99748.01;1709349;83;21045;-72
2021/08/19 00:55:53;;;;;;;6.08;5.12;;;;;;;19.00;71.40;99754.11;1712799;82;21593;-72
2021/08/19 00:58:21;;;;;;;6.05;4.95;;;;;;;18.98;71.43;99761.52;1733120;82;20941;-72
2021/08/19 01:00:47;;;;;;;7.20;4.92;;;;;;;18.97;71.50;99762.53;1732121;82;22199;-73
2021/08/19 01:03:13;;;;;;;7.67;4.95;;;;;;;18.95;71.44;99768.59;1739569;81;21437;-73
2021/08/19 01:05:42;;;;;;;5.12;4.53;;;;;;;18.92;71.39;99768.48;1712632;82;21396;-73
2021/08/19 01:08:10;;;;;;;6.37;4.92;;;;;;;18.90;71.05;99763.80;1732891;82;21408;-73
2021/08/19 01:10:37;;;;;;;9.23;4.42;;;;;;;18.86;70.96;99760.69;1698387;84;21021;-73
2021/08/19 01:13:05;;;;;;;7.47;4.47;;;;;;;18.85;70.78;99760.37;1760851;81;22212;-73
2021/08/19 01:15:33;;;;;;;7.47;4.08;;;;;;;18.82;70.49;99760.76;1744461;81;21021;-73
2021/08/19 01:18:01;;;;;;;6.60;4.30;;;;;;;18.80;70.23;99767.30;1749409;81;21455;-73
2021/08/19 01:20:30;;;;;;;5.40;3.70;;;;;;;18.77;70.07;99773.03;1717718;82;22912;-73
2021/08/19 01:22:58;;;;;;;4.17;3.77;;;;;;;18.77;69.79;99772.52;1750104;81;20989;-73
2021/08/19 01:25:25;;;;;;;5.75;4.20;;;;;;;18.77;69.78;99773.03;1757428;81;22217;-73
2021/08/19 01:27:54;;;;;;;7.67;3.95;;;;;;;18.81;69.60;99780.98;1759258;81;20942;-73
2021/08/19 01:30:21;;;;;;;8.68;4.60;;;;;;;18.81;69.55;99779.14;1729103;81;21066;-73
2021/08/19 01:32:48;;;;;;;5.90;3.90;;;;;;;18.82;69.43;99790.19;1736002;81;21407;-73
2021/08/19 01:35:21;;;;;;;5.53;4.00;;;;;;;18.80;69.41;99798.89;1724711;83;21097;-73
2021/08/19 01:37:48;;;;;;;9.07;4.13;;;;;;;18.78;69.58;99796.92;1725241;82;21838;-72
2021/08/19 01:40:16;;;;;;;5.50;3.80;;;;;;;18.75;69.83;99788.45;1734190;81;20996;-72
2021/08/19 01:42:45;;;;;;;6.42;3.70;;;;;;;18.72;69.90;99783.45;1745564;81;20950;-72
2021/08/19 01:45:15;;;;;;;5.53;4.10;;;;;;;18.69;69.97;99779.33;1757325;81;21525;-72
2021/08/19 01:47:44;;;;;;;5.53;3.92;;;;;;;18.68;70.16;99768.30;1744233;81;20991;-72
2021/08/19 01:50:12;;;;;;;7.15;3.92;;;;;;;18.65;70.40;99776.72;1729400;83;21415;-72
2021/08/19 01:52:43;;;;;;;5.22;4.08;;;;;;;18.64;70.53;99781.72;1746483;81;21002;-73
2021/08/19 01:55:13;;;;;;;5.50;4.47;;;;;;;18.61;71.23;99774.05;1731471;81;20953;-72
2021/08/19 01:57:39;;;;;;;7.15;4.30;;;;;;;18.57;71.72;99783.48;1729838;83;21434;-72
2021/08/19 02:00:06;;;;;;;6.72;4.28;;;;;;;18.53;71.92;99772.34;1731249;81;21475;-72
2021/08/19 02:02:36;;;;;;;6.97;4.70;;;;;;;18.51;72.47;99772.19;1747135;81;21408;-73
2021/08/19 02:05:05;;;;;;;8.10;4.58;;;;;;;18.48;72.56;99777.41;1738343;81;20959;-73
2021/08/19 02:07:33;;;;;;;7.05;4.60;;;;;;;18.45;73.10;99777.80;1737590;81;21008;-73
2021/08/19 02:10:00;;;;;;;9.13;4.85;;;;;;;18.42;73.26;99781.33;1755215;81;20997;-73
2021/08/19 02:12:28;;;;;;;6.90;5.33;;;;;;;18.41;73.45;99768.98;1729516;81;21043;-73
2021/08/19 02:14:55;;;;;;;6.40;5.03;;;;;;;18.39;73.82;99775.85;1755210;81;21843;-73
2021/08/19 02:17:23;;;;;;;9.75;6.08;;;;;;;18.36;74.15;99785.59;1757663;81;20985;-73
2021/08/19 02:19:49;;;;;;;5.60;4.42;;;;;;;18.34;74.35;99776.94;1757415;81;21002;-72
2021/08/19 02:22:17;;;;;;;7.55;5.37;;;;;;;18.36;74.61;99776.74;1735180;81;21457;-73
2021/08/19 02:24:44;;;;;;;8.08;5.33;;;;;;;18.36;74.70;99771.40;1732524;82;21397;-73
2021/08/19 02:27:10;;;;;;;6.25;5.08;;;;;;;18.37;74.81;99767.70;1742618;81;22867;-73
2021/08/19 02:29:37;;;;;;;5.78;4.33;;;;;;;18.39;74.89;99767.00;1729561;81;20996;-72
2021/08/19 02:32:06;;;;;;;6.10;4.85;;;;;;;18.40;74.93;99759.30;1728443;81;20989;-72
2021/08/19 02:34:33;;;;;;;6.78;5.05;;;;;;;18.42;74.86;99758.59;1696072;82;20990;-73
2021/08/19 02:36:59;;;;;;;6.72;4.97;;;;;;;18.45;74.72;99747.55;1713485;83;21009;-73
2021/08/19 02:39:25;;;;;;;5.33;4.62;;;;;;;18.47;74.59;99757.03;1733678;81;21804;-73
2021/08/19 02:41:52;;;;;;;6.53;4.95;;;;;;;18.53;74.49;99760.81;1759504;81;20977;-73
2021/08/19 02:44:18;;;;;;;6.05;4.70;;;;;;;18.54;74.44;99774.50;1759873;81;20978;-73
2021/08/19 02:46:45;;;;;;;4.55;4.15;;;;;;;18.56;74.42;99781.83;1740128;81;21083;-73
2021/08/19 02:49:12;;;;;;;6.42;4.80;;;;;;;18.57;74.46;99785.64;1731272;81;20956;-74
2021/08/19 02:51:40;;;;;;;7.10;5.62;;;;;;;18.56;74.61;99786.66;1729592;82;22611;-73
2021/08/19 02:54:06;;;;;;;6.87;5.33;;;;;;;18.50;74.90;99794.09;1729583;82;21486;-72
2021/08/19 02:56:35;;;;;;;8.95;5.67;;;;;;;18.45;75.22;99793.83;1729757;81;21488;-72
2021/08/19 02:59:02;;;;;;;6.62;5.05;;;;;;;18.39;75.62;99779.03;1731296;81;20969;-72
2021/08/19 03:01:29;;;;;;;8.18;4.97;;;;;;;18.34;75.95;99769.42;1735127;81;21026;-73
2021/08/19 03:03:56;;;;;;;9.00;5.22;;;;;;;18.28;76.22;99749.59;1739949;81;21819;-73
2021/08/19 03:06:22;;;;;;;6.05;4.90;;;;;;;18.24;76.41;99737.13;1728589;83;20930;-73
2021/08/19 03:08:49;;;;;;;7.12;5.35;;;;;;;18.20;76.57;99734.48;1708687;83;21005;-72
2021/08/19 03:11:17;;;;;;;8.83;6.08;;;;;;;18.12;76.74;99738.59;1746868;81;21044;-72
2021/08/19 03:13:44;;;;;;;7.85;5.55;;;;;;;18.05;76.90;99736.36;1727134;81;20966;-72
2021/08/19 03:16:11;;;;;;;8.20;5.85;;;;;;;18.04;77.10;99744.03;1723144;83;21845;-72
2021/08/19 03:18:38;;;;;;;9.13;5.28;;;;;;;18.01;77.29;99739.89;1734041;81;20965;-72
2021/08/19 03:21:05;;;;;;;8.70;5.92;;;;;;;17.98;77.51;99734.93;1735970;81;21052;-73
2021/08/19 03:23:33;;;;;;;8.85;6.40;;;;;;;17.99;77.71;99736.59;1710431;82;20969;-73
2021/08/19 03:26:00;;;;;;;6.87;5.87;;;;;;;17.97;77.81;99735.13;1738375;82;21092;-72
2021/08/19 03:28:28;;;;;;;7.92;5.80;;;;;;;17.92;77.91;99738.84;1739341;82;20998;-72
2021/08/19 03:30:54;;;;;;;8.95;5.53;;;;;;;17.90;77.94;99743.03;1731967;81;21079;-73
2021/08/19 03:33:21;;;;;;;6.95;6.12;;;;;;;17.88;77.97;99734.89;1730770;80;21067;-72
2021/08/19 03:35:48;;;;;;;7.72;6.12;;;;;;;17.88;77.99;99743.73;1731591;82;21014;-72
2021/08/19 03:38:16;;;;;;;7.20;6.12;;;;;;;17.88;78.09;99754.42;1732862;82;21532;-72
2021/08/19 03:40:42;;;;;;;8.75;6.65;;;;;;;17.87;78.25;99750.09;1734455;80;21428;-73
2021/08/19 03:43:10;;;;;;;9.23;6.95;;;;;;;17.81;78.26;99758.83;1753509;81;21445;-72
2021/08/19 03:45:38;;;;;;;8.25;6.60;;;;;;;17.74;78.30;99751.22;1738093;80;21553;-73
2021/08/19 03:48:05;;;;;;;8.03;6.67;;;;;;;17.67;78.34;99755.11;1720302;82;20977;-72
2021/08/19 03:50:34;;;;;;;8.50;6.62;;;;;;;17.63;78.36;99757.81;1712071;82;20954;-72
2021/08/19 03:53:00;;;;;;;9.18;6.58;;;;;;;17.58;78.40;99754.88;1735694;80;21815;-72
2021/08/19 03:55:27;;;;;;;7.83;6.87;;;;;;;17.54;78.49;99762.91;1705000;82;21013;-72
2021/08/19 03:57:55;;;;;;;7.00;6.30;;;;;;;17.52;78.69;99764.11;1740131;81;21022;-72
2021/08/19 04:00:22;;;;;;;10.40;6.42;;;;;;;17.52;78.81;99762.27;1734563;82;21034;-72
2021/08/19 04:02:48;;;;;;;6.37;5.67;;;;;;;17.52;78.83;99767.61;1720910;82;21002;-72
2021/08/19 04:05:15;;;;;;;6.67;5.97;;;;;;;17.50;78.88;99765.63;1736989;81;21790;-72
2021/08/19 04:07:43;;;;;;;8.00;6.03;;;;;;;17.50;78.87;99766.96;1733152;82;20998;-72
2021/08/19 04:10:11;;;;;;;7.35;5.90;;;;;;;17.50;78.83;99774.14;1729863;82;21017;-72
2021/08/19 04:12:39;;;;;;;7.33;5.72;;;;;;;17.51;78.81;99781.14;1727926;82;21535;-74
2021/08/19 04:15:06;;;;;;;7.12;6.10;;;;;;;17.52;78.80;99776.12;1725273;82;21062;-73
2021/08/19 04:17:34;;;;;;;9.40;6.15;;;;;;;17.51;78.75;99775.30;1728473;82;20966;-73
2021/08/19 04:20:00;;;;;;;8.45;6.10;;;;;;;17.50;78.76;99766.13;1726002;82;20922;-73
2021/08/19 04:22:28;;;;;;;6.50;5.60;;;;;;;17.48;78.75;99758.81;1739727;81;20997;-73
2021/08/19 04:24:57;;;;;;;6.10;5.22;;;;;;;17.44;78.72;99757.83;1728748;80;21249;-72
2021/08/19 04:27:23;;;;;;;8.08;5.85;;;;;;;17.42;78.65;99769.70;1734098;82;21144;-72
2021/08/19 04:29:50;;;;;;;7.60;5.78;;;;;;;17.43;78.63;99780.70;1730528;82;21854;-72
2021/08/19 04:32:17;;;;;;;6.78;5.28;;;;;;;17.46;78.55;99783.00;1734096;82;21009;-72
2021/08/19 04:34:43;;;;;;;6.67;5.70;;;;;;;17.44;78.38;99785.03;1721195;82;20965;-72
2021/08/19 04:37:10;;;;;;;6.20;5.50;;;;;;;17.42;78.31;99795.06;1718723;82;20979;-72
2021/08/19 04:39:37;;;;;;;6.47;5.50;;;;;;;17.41;78.33;99791.56;1731991;82;21534;-72
2021/08/19 04:42:03;;;;;;;6.50;5.08;;;;;;;17.42;78.30;99797.22;1734063;81;22525;-72
2021/08/19 04:44:30;;;;;;;6.65;5.05;;;;;;;17.43;78.19;99804.22;1734258;82;21525;-72
2021/08/19 04:46:57;;;;;;;5.85;4.67;;;;;;;17.42;77.82;99799.06;1734550;82;21439;-73
2021/08/19 04:49:24;;;;;;;6.92;5.03;;;;;;;17.41;77.65;99795.57;1734267;82;21039;-70
2021/08/19 04:51:52;;;;;;;5.20;4.47;;;;;;;17.40;77.43;99795.75;1734288;82;20972;-70
2021/08/19 04:54:19;;;;;;;5.05;4.55;;;;;;;17.40;77.45;99793.08;1733327;81;21853;-72
2021/08/19 04:56:46;;;;;;;5.08;4.55;;;;;;;17.39;77.19;99798.10;1732421;82;21035;-72
2021/08/19 04:59:13;;;;;;;6.33;4.92;;;;;;;17.41;77.26;99808.09;1739971;81;21389;-72
2021/08/19 05:01:39;;;;;;;5.83;4.80;;;;;;;17.45;77.28;99805.38;1731032;82;20986;-72
2021/08/19 05:04:06;;;;;;;7.08;5.15;;;;;;;17.49;77.31;99804.53;1736768;81;21036;-73
2021/08/19 05:06:33;;;;;;;5.03;4.53;;;;;;;17.54;77.26;99803.47;1728606;82;22494;-72
2021/08/19 05:09:00;;;;;;;7.22;4.75;;;;;;;17.56;77.11;99793.42;1721394;81;21534;-73
2021/08/19 05:11:27;;;;;;;5.67;4.67;;;;;;;17.59;76.99;99797.92;1736275;82;21480;-72
2021/08/19 05:13:57;;;;;;;7.53;4.95;;;;;;;17.59;76.96;99793.91;1737291;82;21097;-72
2021/08/19 05:16:22;;;;;;;4.67;3.98;;;;;;;17.61;77.00;99798.56;1729533;81;21000;-73
2021/08/19 05:18:50;;;;;;;6.90;4.30;;;;;;;17.64;76.71;99800.86;1735163;82;21008;-72
2021/08/19 05:21:17;;;;;;;5.35;4.47;;;;;;;17.65;76.49;99803.85;1732694;81;21460;-74
2021/08/19 05:23:44;;;;;;;8.20;4.53;;;;;;;17.66;76.40;99810.88;1731576;81;21056;-74
2021/08/19 05:26:12;;;;;;;6.60;4.42;;;;;;;17.68;76.11;99813.37;1733607;81;21095;-74
2021/08/19 05:28:39;;;;;;;6.78;4.62;;;;;;;17.64;75.84;99816.88;1738212;81;21069;-73
2021/08/19 05:31:05;;;;;;;4.87;4.37;;;;;;;17.63;75.75;99822.41;1718134;82;22218;-73
2021/08/19 05:33:35;;;;;;;6.30;4.92;;;;;;;17.59;75.53;99815.28;1715097;81;21031;-73
2021/08/19 05:36:07;;;;;;;5.12;4.30;;;;;;;17.52;75.43;99803.65;1725384;81;21021;-74
2021/08/19 05:38:31;;;;;;;5.60;4.55;;;;;;;17.46;75.14;99816.38;1705252;83;21061;-75
2021/08/19 05:40:57;;;;;;;6.95;4.10;;;;;;;17.41;75.30;99816.92;1683063;83;21131;-74
2021/08/19 05:43:24;;;;;;;6.05;4.25;;;;;;;17.40;75.37;99807.77;1687311;83;21832;-73
2021/08/19 05:45:51;;;;;;;5.47;4.70;;;;;;;17.39;75.37;99813.61;1686125;83;21025;-73
2021/08/19 05:48:19;;;;;;;5.83;4.58;;;;;;;17.43;75.45;99810.07;1678390;85;21065;-73
2021/08/19 05:50:45;;;;;;;5.03;4.47;;;;;;;17.48;75.38;99808.21;1730067;81;21060;-74
2021/08/19 05:53:12;;;;;;;5.40;4.60;;;;;;;17.51;75.39;99818.02;1724283;81;21135;-73
2021/08/19 05:55:38;;;;;;;6.83;5.37;;;;;;;17.57;75.22;99823.16;1741047;81;21757;-73
2021/08/19 05:58:05;;;;;;;6.92;4.80;;;;;;;17.55;75.11;99828.64;1704264;82;21068;-72
2021/08/19 06:00:31;;;;;;;7.50;4.65;;;;;;;17.55;75.11;99836.66;1709944;83;21028;-74
2021/08/19 06:02:58;;;;;;;5.20;4.70;;;;;;;17.58;75.15;99840.33;1725733;81;21045;-71
2021/08/19 06:05:25;;;;;;;6.20;4.80;;;;;;;17.63;75.11;99841.10;1707360;83;20949;-73
2021/08/19 06:07:51;;;;;;;5.72;4.90;;;;;;;17.65;75.04;99835.90;1708259;83;21803;-71
2021/08/19 06:10:18;;;;;;;6.45;4.50;;;;;;;17.66;75.00;99835.39;1726556;82;21443;-72
2021/08/19 06:12:45;;;;;;;7.53;4.78;;;;;;;17.70;75.03;99845.58;1718569;82;20938;-74
2021/08/19 06:15:11;;;;;;;5.40;4.62;;;;;;;17.72;74.77;99835.55;1714693;82;21097;-76
2021/08/19 06:17:39;;;;;;;8.33;4.87;;;;;;;17.76;74.57;99828.49;1715055;81;21000;-74
2021/08/19 06:20:09;;;;;;;5.47;4.60;;;;;;;17.72;74.23;99827.53;1726718;81;20945;-74
2021/08/19 06:22:35;;;;;;;5.08;4.50;;;;;;;17.69;74.05;99831.91;1731342;81;20885;-73
2021/08/19 06:25:05;;;;;;;5.70;4.58;;;;;;;17.68;73.82;99834.23;1720073;83;21017;-74
2021/08/19 06:27:32;;;;;;;7.05;4.58;;;;;;;17.68;73.89;99832.06;1717779;81;21069;-73
2021/08/19 06:30:00;;;;;;;5.35;3.95;;;;;;;17.77;73.77;99825.67;1742824;80;21044;-73
2021/08/19 06:32:26;;;;;;;5.92;3.65;;;;;;;17.85;73.39;99830.08;1758331;80;21817;-73
2021/08/19 06:34:52;;;;;;;6.28;3.85;;;;;;;17.93;73.21;99837.51;1732263;81;21406;-72
2021/08/19 06:37:19;;;;;;;6.65;4.55;;;;;;;18.03;73.01;99842.59;1729583;81;21403;-73
2021/08/19 06:39:46;;;;;;;8.23;4.00;;;;;;;18.09;72.38;99839.70;1729442;83;21050;-73
2021/08/19 06:42:12;;;;;;;5.22;4.20;;;;;;;18.11;72.04;99838.50;1732961;82;20952;-73
2021/08/19 06:44:39;;;;;;;6.92;4.22;;;;;;;18.13;71.69;99844.48;1751797;81;21781;-71
2021/08/19 06:47:05;;;;;;;6.42;4.10;;;;;;;18.14;71.64;99842.64;1701910;80;21108;-74
2021/08/19 06:49:32;;;;;;;7.28;4.05;;;;;;;18.17;71.45;99845.80;1754587;81;20957;-74
2021/08/19 06:51:58;;;;;;;7.25;4.33;;;;;;;18.09;70.79;99839.70;1769390;80;21036;-74
2021/08/19 06:54:24;;;;;;;6.05;3.80;;;;;;;17.99;70.33;99839.46;1738515;80;21001;-73
2021/08/19 06:56:51;;;;;;;6.62;4.15;;;;;;;17.92;70.25;99847.05;1738666;82;22792;-75
2021/08/19 06:59:17;;;;;;;7.35;3.75;;;;;;;17.83;70.32;99840.13;1716959;82;21048;-75
2021/08/19 07:01:44;;;;;;;6.58;3.95;;;;;;;17.76;70.37;99843.19;1736831;82;21535;-76
2021/08/19 07:04:11;;;;;;;8.55;4.17;;;;;;;17.70;70.72;99850.09;1738315;82;21271;-75
2021/08/19 07:06:37;;;;;;;6.85;4.55;;;;;;;17.74;71.05;99860.23;1739069;82;21369;-75
2021/08/19 07:09:04;;;;;;;5.25;4.03;;;;;;;17.76;70.73;99861.88;1737000;82;21785;-73
2021/08/19 07:11:30;;;;;;;6.53;3.80;;;;;;;17.79;70.88;99862.88;1738005;82;21443;-73
2021/08/19 07:13:57;;;;;;;7.95;4.25;;;;;;;17.80;70.83;99870.70;1718161;82;21044;-74
2021/08/19 07:16:25;;;;;;;5.97;3.98;;;;;;;17.78;70.66;99873.24;1739087;82;21106;-74
2021/08/19 07:18:51;;;;;;;5.37;4.05;;;;;;;17.73;70.66;99880.44;1734364;82;20958;-73
2021/08/19 07:21:17;;;;;;;8.15;4.33;;;;;;;17.68;70.59;99875.62;1727641;82;22592;-75
2021/08/19 07:23:46;;;;;;;7.92;3.98;;;;;;;17.61;70.55;99881.34;1728130;82;20859;-73
2021/08/19 07:26:13;;;;;;;7.40;4.12;;;;;;;17.55;70.57;99886.56;1710480;82;21001;-74
2021/08/19 07:28:40;;;;;;;7.47;3.55;;;;;;;17.49;70.59;99878.78;1695948;84;21137;-74
2021/08/19 07:31:06;;;;;;;5.33;3.55;;;;;;;17.50;70.74;99880.95;1674529;85;21125;-75
2021/08/19 07:33:33;;;;;;;5.78;3.67;;;;;;;17.49;70.68;99888.13;1728008;82;21792;-74
2021/08/19 07:35:59;;;;;;;5.83;3.92;;;;;;;17.44;70.65;99889.15;1728095;82;21002;-73
2021/08/19 07:38:27;;;;;;;7.72;3.70;;;;;;;17.43;70.60;99890.98;1702505;82;20998;-75
2021/08/19 07:40:53;;;;;;;7.00;4.05;;;;;;;17.43;70.62;99888.83;1731965;82;21014;-76
2021/08/19 07:43:20;;;;;;;6.12;3.37;;;;;;;17.44;70.72;99883.30;1739982;82;21103;-77
2021/08/19 07:45:47;;;;;;;7.78;3.62;;;;;;;17.48;70.92;99877.13;1712300;82;22216;-77
2021/08/19 07:48:14;;;;;;;6.67;3.95;;;;;;;17.47;70.84;99867.45;1735647;82;21035;-76
2021/08/19 07:50:41;;;;;;;5.40;3.90;;;;;;;17.49;70.76;99869.44;1721101;82;21002;-77
2021/08/19 07:53:08;;;;;;;5.33;3.70;;;;;;;17.52;70.88;99863.73;1726908;82;21025;-78
2021/08/19 07:55:35;;;;;;;6.08;3.80;;;;;;;17.53;70.46;99863.22;1662060;83;21024;-76
2021/08/19 07:58:01;;;;;;;5.60;3.58;;;;;;;17.52;70.47;99865.06;1723420;82;21854;-76
2021/08/19 08:00:32;;;;;;;5.12;3.40;;;;;;;17.50;70.66;99869.76;1736653;82;21087;-74
2021/08/19 08:02:58;;;;;;;5.95;3.70;;;;;;;17.52;70.66;99868.23;1731671;82;21348;-74
2021/08/19 08:05:28;;;;;;;4.85;3.02;;;;;;;17.52;70.63;99871.73;1734217;82;21042;-76
2021/08/19 08:08:06;;;;;;;7.15;3.40;;;;;;;17.47;70.28;99870.13;1738256;82;21032;-77
2021/08/19 08:10:37;;;;;;;4.72;3.35;;;;;;;17.44;70.41;99867.80;1734431;82;22469;-77
2021/08/19 08:13:02;;;;;;;5.28;3.50;;;;;;;17.45;70.46;99849.42;1731517;82;21068;-78
2021/08/19 08:15:28;;;;;;;6.50;3.22;;;;;;;17.49;70.58;99834.73;1689949;82;21017;-76
2021/08/19 08:17:55;;;;;;;3.77;3.17;;;;;;;17.52;70.57;99833.53;1701017;84;21039;-76
2021/08/19 08:20:21;;;;;;;6.70;3.25;;;;;;;17.56;70.19;99848.17;1737897;82;21096;-76
2021/08/19 08:22:50;;;;;;;8.73;3.50;;;;;;;17.58;70.32;99848.34;1737946;82;22207;-78
2021/08/19 08:25:18;;;;;;;5.08;3.42;;;;;;;17.57;70.78;99845.34;1737110;82;21488;-78
2021/08/19 08:28:19;;;;;;;5.17;3.72;;;;;;;17.57;71.29;99837.84;1738150;82;21492;-78
2021/08/19 08:30:32;;;;;;;7.37;4.28;;;;;;;17.57;71.79;99844.52;1734183;82;21179;-79
2021/08/19 08:32:59;;;;;;;7.83;3.52;;;;;;;17.55;72.28;99839.83;1726087;82;21040;-76
2021/08/19 08:35:26;;;;;;;6.95;3.75;;;;;;;17.57;72.83;99836.50;1731231;82;21853;-77
2021/08/19 08:37:53;;;;;;;6.37;3.60;;;;;;;17.58;73.17;99826.97;1730106;82;21013;-78
2021/08/19 08:40:19;;;;;;;22.60;18.25;;;;;;;17.59;73.51;99828.63;1726687;82;20986;-77
2021/08/19 08:42:47;;;;;;;5.80;4.72;;;;;;;17.58;73.28;99837.66;1727781;82;21013;-77
2021/08/19 08:45:15;;;;;;;6.80;3.62;;;;;;;17.56;73.40;99837.48;1737812;82;21048;-79
2021/08/19 08:47:42;;;;;;;6.33;3.62;;;;;;;17.54;73.46;99846.19;1738036;82;21808;-78
2021/08/19 08:50:10;;;;;;;4.72;3.72;;;;;;;17.56;73.57;99862.86;1734692;82;21053;-78
2021/08/19 08:52:38;;;;;;;5.83;3.47;;;;;;;17.58;73.45;99879.55;1728887;82;21016;-78
2021/08/19 08:55:07;;;;;;;5.08;3.75;;;;;;;17.59;73.46;99891.39;1735816;82;21013;-80
2021/08/19 08:57:35;;;;;;;5.45;3.67;;;;;;;17.58;73.54;99890.23;1731405;82;21042;-80
2021/08/19 09:00:06;;;;;;;4.20;3.20;;;;;;;17.58;73.70;99889.73;1733331;82;21861;-79
2021/08/19 09:02:33;;;;;;;6.78;3.52;;;;;;;17.57;73.74;99885.91;1731462;82;21540;-77
2021/08/19 09:05:15;;;;;;;4.58;3.70;;;;;;;17.57;73.87;99886.73;1682454;83;21475;-76
2021/08/19 09:07:45;;;;;;;4.10;3.25;;;;;;;17.60;73.96;99885.54;1708179;82;21014;-75
2021/08/19 09:10:13;;;;;;;6.53;3.90;;;;;;;17.61;73.80;99900.05;1720075;82;21028;-77
2021/08/19 09:12:42;;;;;;;5.20;3.10;;;;;;;17.60;73.75;99896.22;1736955;81;22565;-76
2021/08/19 09:15:18;;;;;;;5.65;3.22;;;;;;;17.58;73.66;99891.06;1732704;81;20997;-76
2021/08/19 09:17:54;;;;;;;7.17;3.33;;;;;;;17.54;73.75;99882.23;1727245;82;21107;-76
2021/08/19 09:20:23;;;;;;;5.87;3.62;;;;;;;17.52;74.04;99869.58;1726947;83;21045;-77
2021/08/19 09:23:07;;;;;;;8.83;3.72;;;;;;;17.51;74.21;99858.57;1725088;82;20982;-77
2021/08/19 09:25:39;;;;;;;5.90;3.80;;;;;;;17.49;74.37;99861.93;1712434;82;21582;-74
2021/08/19 09:28:27;;;;;;;6.83;4.00;;;;;;;17.46;74.55;99864.43;1708509;84;21047;-76
2021/08/19 09:31:04;;;;;;;7.62;3.95;;;;;;;17.45;74.78;99847.58;1700896;83;21491;-78
2021/08/19 09:33:39;;;;;;;7.47;4.40;;;;;;;17.43;75.01;99834.09;1699104;84;21036;-78
2021/08/19 09:36:06;;;;;;;8.15;4.00;;;;;;;17.39;75.16;99838.14;1720899;83;21021;-78
2021/08/19 09:38:44;;;;;;;6.15;4.37;;;;;;;17.34;75.44;99827.16;1726789;82;22472;-76
2021/08/19 09:41:17;;;;;;;6.80;4.58;;;;;;;17.32;75.77;99818.51;1727341;83;21033;-76
2021/08/19 09:43:51;;;;;;;5.78;4.35;;;;;;;17.32;75.96;99810.50;1728118;83;21411;-76
2021/08/19 09:46:35;;;;;;;7.70;4.87;;;;;;;17.27;76.19;99799.52;1703910;83;21485;-75
2021/08/19 09:49:24;;;;;;;6.67;4.45;;;;;;;17.24;76.36;99801.22;1711647;83;20962;-76
2021/08/19 09:52:11;;;;;;;6.47;4.90;;;;;;;17.25;76.60;99792.20;1729544;83;22269;-75
2021/08/19 09:54:40;;;;;;;10.50;5.10;;;;;;;17.29;76.69;99806.86;1729405;83;21041;-76
2021/08/19 09:57:08;;;;;;;7.75;4.60;;;;;;;17.30;76.66;99808.52;1729650;82;21097;-76
2021/08/19 09:59:37;;;;;;;7.47;4.45;;;;;;;17.31;76.73;99803.00;1729143;83;20962;-76
2021/08/19 10:02:08;;;;;;;7.72;4.60;;;;;;;17.36;76.87;99805.94;1700678;84;21448;-76
2021/08/19 10:04:36;;;;;;;9.98;4.80;;;;;;;17.44;76.81;99809.05;1700417;83;21849;-76
2021/08/19 10:07:03;;;;;;;6.45;4.58;;;;;;;17.54;76.91;99821.65;1729400;83;21021;-76
2021/08/19 10:09:30;;;;;;;6.05;4.70;;;;;;;17.67;76.96;99826.40;1728230;83;21002;-76
2021/08/19 10:11:58;;;;;;;6.35;4.85;;;;;;;17.76;76.93;99828.02;1728187;83;21505;-75
2021/08/19 10:14:28;;;;;;;9.05;4.67;;;;;;;17.84;76.81;99823.08;1727866;82;20967;-76
2021/08/19 10:16:55;;;;;;;9.60;4.55;;;;;;;17.89;76.74;99819.37;1728201;82;21821;-76
2021/08/19 10:19:36;;;;;;;7.47;4.70;;;;;;;17.89;76.36;99819.37;1728318;82;21417;-76
2021/08/19 10:22:15;;;;;;;7.47;4.90;;;;;;;17.92;76.26;99813.14;1728175;83;21488;-75
2021/08/19 10:24:53;;;;;;;6.15;4.60;;;;;;;17.96;76.10;99805.10;1727947;82;20951;-75
2021/08/19 10:27:25;;;;;;;8.75;4.80;;;;;;;17.99;75.89;99804.72;1728576;82;20993;-76
2021/08/19 10:29:59;;;;;;;10.98;4.92;;;;;;;18.03;75.83;99811.86;1729267;82;21824;-75
2021/08/19 10:32:35;;;;;;;7.12;4.55;;;;;;;18.11;75.80;99839.83;1729421;83;20946;-76
2021/08/19 10:35:13;;;;;;;7.47;4.50;;;;;;;18.19;75.53;99860.30;1723833;82;21405;-76
2021/08/19 10:37:55;;;;;;;5.67;4.30;;;;;;;18.24;75.44;99845.90;1729373;83;20921;-76
2021/08/19 10:40:34;;;;;;;6.10;4.17;;;;;;;18.32;75.43;99840.44;1727599;82;21135;-76
2021/08/19 10:43:37;;;;;;;8.75;4.87;;;;;;;18.36;75.25;99840.41;1705031;83;21858;-75
2021/08/19 10:46:08;;;;;;;8.18;4.37;;;;;;;18.34;74.99;99845.11;1683805;84;20988;-75
2021/08/19 10:48:44;;;;;;;5.45;4.30;;;;;;;18.35;74.95;99856.64;1704454;84;20971;-75
2021/08/19 10:51:11;;;;;;;6.22;4.33;;;;;;;18.27;74.34;99857.04;1707267;82;21005;-76
2021/08/19 10:53:39;;;;;;;7.17;4.37;;;;;;;18.25;74.56;99863.09;1704830;82;21488;-73
2021/08/19 10:56:07;;;;;;;5.42;4.08;;;;;;;18.28;74.62;99864.55;1704814;84;21464;-75
2021/08/19 10:58:36;;;;;;;7.87;4.35;;;;;;;18.28;74.71;99868.05;1683663;84;21112;-74
2021/08/19 11:01:22;;;;;;;5.80;4.08;;;;;;;18.31;74.72;99862.84;1701813;83;21010;-75
2021/08/19 11:03:52;;;;;;;5.95;4.25;;;;;;;18.35;74.65;99863.32;1715419;82;21001;-75
2021/08/19 11:06:23;;;;;;;5.42;4.30;;;;;;;18.38;74.42;99868.29;1709402;83;21060;-74
2021/08/19 11:08:55;;;;;;;6.33;4.30;;;;;;;18.37;74.42;99862.11;1720588;82;21029;-74
2021/08/19 11:11:32;;;;;;;6.53;4.77;;;;;;;18.35;74.53;99844.61;1674773;84;21365;-73
2021/08/19 11:14:09;;;;;;;7.03;4.40;;;;;;;18.38;74.75;99820.16;1651247;85;21329;-73
2021/08/19 11:16:39;;;;;;;6.00;4.50;;;;;;;18.41;74.69;99819.78;1651339;86;21077;-74
2021/08/19 11:19:25;;;;;;;6.65;4.90;;;;;;;18.43;74.66;99844.48;1693889;84;21061;-75
2021/08/19 11:22:01;;;;;;;9.13;5.05;;;;;;;18.40;74.56;99865.75;1693926;84;21895;-75
2021/08/19 11:24:31;;;;;;;6.42;4.87;;;;;;;18.37;74.67;99874.14;1676195;85;21505;-75
2021/08/19 11:27:07;;;;;;;6.20;4.58;;;;;;;18.39;74.97;99877.97;1704052;84;21496;-76
2021/08/19 11:29:38;;;;;;;5.70;4.50;;;;;;;18.40;75.11;99867.59;1703264;81;21294;-76
2021/08/19 11:32:11;;;;;;;11.68;5.12;;;;;;;18.37;75.03;99845.24;1732776;81;21512;-76
2021/08/19 11:34:49;;;;;;;6.80;4.90;;;;;;;18.33;75.28;99844.77;1737637;82;21042;-76
2021/08/19 11:37:31;;;;;;;5.80;4.90;;;;;;;18.33;75.41;99837.25;1735247;82;21056;-76
2021/08/19 11:39:59;;;;;;;7.62;4.92;;;;;;;18.34;75.62;99837.09;1737489;82;21033;-76
2021/08/19 11:42:31;;;;;;;7.33;5.33;;;;;;;18.37;75.68;99831.36;1733026;82;21052;-77